createdAt,value
2022-10-09T00:01:20.939Z,3.50
2022-10-09T00:03:50.696Z,3.70
2022-10-09T00:06:21.759Z,3.30
2022-10-09T00:08:50.186Z,3.40
2022-10-09T00:11:27.409Z,3.00
2022-10-09T00:13:55.760Z,3.20
2022-10-09T00:16:24.541Z,3.20
2022-10-09T00:18:53.573Z,3.70
2022-10-09T00:21:24.386Z,3.20
2022-10-09T00:23:54.355Z,2.60
2022-10-09T00:26:22.791Z,2.60
2022-10-09T00:28:51.001Z,2.60
2022-10-09T00:31:18.742Z,3.20
2022-10-09T00:33:46.690Z,3.60
2022-10-09T00:36:17.136Z,2.50
2022-10-09T00:38:44.835Z,2.80
2022-10-09T00:41:30.952Z,3.00
2022-10-09T00:44:01.485Z,2.80
2022-10-09T00:46:39.770Z,2.70
2022-10-09T00:49:19.154Z,2.80
2022-10-09T00:51:49.220Z,2.90
2022-10-09T00:54:20.576Z,3.40
2022-10-09T00:56:49.788Z,3.60
2022-10-09T00:59:18.557Z,3.40
2022-10-09T01:01:46.518Z,3.60
2022-10-09T01:04:15.035Z,3.50
2022-10-09T01:06:58.551Z,3.90
2022-10-09T01:09:32.026Z,4.30
2022-10-09T01:12:13.681Z,4.00
2022-10-09T01:14:55.936Z,3.60
2022-10-09T01:17:43.369Z,3.90
2022-10-09T01:20:23.883Z,3.70
2022-10-09T01:23:16.942Z,4.00
2022-10-09T01:26:01.410Z,3.70
2022-10-09T01:28:30.471Z,3.80
2022-10-09T01:31:02.698Z,3.00
2022-10-09T01:33:32.493Z,3.30
2022-10-09T01:36:02.309Z,3.30
2022-10-09T01:38:31.081Z,3.00
2022-10-09T01:40:58.744Z,3.00
2022-10-09T01:43:26.238Z,2.70
2022-10-09T01:46:21.245Z,3.00
2022-10-09T01:49:26.840Z,2.50
2022-10-09T01:52:08.530Z,3.10
2022-10-09T01:54:56.407Z,2.40
2022-10-09T01:57:35.291Z,2.30
2022-10-09T02:00:09.950Z,2.70
2022-10-09T02:02:39.275Z,2.30
2022-10-09T02:05:09.391Z,3.00
2022-10-09T02:07:37.145Z,2.40
2022-10-09T02:10:07.039Z,2.30
2022-10-09T02:12:40.420Z,2.80
2022-10-09T02:15:09.601Z,2.40
2022-10-09T02:17:43.121Z,2.10
2022-10-09T02:20:24.878Z,1.80
2022-10-09T02:22:54.403Z,2.50
2022-10-09T02:25:22.214Z,2.60
2022-10-09T02:27:49.746Z,2.50
2022-10-09T02:30:18.086Z,2.20
2022-10-09T02:32:45.874Z,2.50
2022-10-09T02:35:13.552Z,2.50
2022-10-09T02:37:41.018Z,2.70
2022-10-09T02:40:10.906Z,2.50
2022-10-09T02:42:38.619Z,2.30
2022-10-09T02:45:06.941Z,2.70
2022-10-09T02:47:34.454Z,2.10
2022-10-09T02:50:01.927Z,2.40
2022-10-09T02:52:29.462Z,2.30
2022-10-09T02:54:56.942Z,2.10
2022-10-09T02:57:24.415Z,2.40
2022-10-09T02:59:51.901Z,2.10
2022-10-09T03:02:19.539Z,2.20
2022-10-09T03:04:47.270Z,2.30
2022-10-09T03:07:14.787Z,1.90
2022-10-09T03:09:42.850Z,2.50
2022-10-09T03:12:10.353Z,2.50
2022-10-09T03:14:37.816Z,1.90
2022-10-09T03:17:05.289Z,1.70
2022-10-09T03:19:32.773Z,2.40
2022-10-09T03:22:00.242Z,2.10
2022-10-09T03:24:27.854Z,2.10
2022-10-09T03:26:55.307Z,2.50
2022-10-09T03:29:22.829Z,2.20
2022-10-09T03:31:53.120Z,2.20
2022-10-09T03:34:21.008Z,1.90
2022-10-09T03:36:48.527Z,1.80
2022-10-09T03:39:16.092Z,2.10
2022-10-09T03:41:43.651Z,2.90
2022-10-09T03:44:11.117Z,2.60
2022-10-09T03:46:38.625Z,2.10
2022-10-09T03:49:06.184Z,2.00
2022-10-09T03:51:33.666Z,2.20
2022-10-09T03:54:01.188Z,2.10
2022-10-09T03:56:28.729Z,2.10
2022-10-09T03:58:56.250Z,2.20
2022-10-09T04:01:23.959Z,2.10
2022-10-09T04:03:51.484Z,2.30
2022-10-09T04:06:18.956Z,2.60
2022-10-09T04:08:46.449Z,2.60
2022-10-09T04:11:13.927Z,4.10
2022-10-09T04:13:41.443Z,3.70
2022-10-09T04:16:12.615Z,2.30
2022-10-09T04:18:41.902Z,2.60
2022-10-09T04:21:10.170Z,3.50
2022-10-09T04:23:37.716Z,3.90
2022-10-09T04:26:05.454Z,3.50
2022-10-09T04:28:33.248Z,2.60
2022-10-09T04:31:00.952Z,3.00
2022-10-09T04:33:28.802Z,3.90
2022-10-09T04:35:57.274Z,3.10
2022-10-09T04:38:25.318Z,3.30
2022-10-09T04:41:02.078Z,3.50
2022-10-09T04:43:30.361Z,2.90
2022-10-09T04:45:58.493Z,3.30
2022-10-09T04:48:26.029Z,4.40
2022-10-09T04:50:53.632Z,5.40
2022-10-09T04:53:21.142Z,8.60
2022-10-09T04:55:48.660Z,5.60
2022-10-09T04:58:16.132Z,4.10
2022-10-09T05:00:46.339Z,3.20
2022-10-09T05:03:13.973Z,3.30
2022-10-09T05:05:41.503Z,2.50
2022-10-09T05:08:08.999Z,5.10
2022-10-09T05:10:36.584Z,6.90
2022-10-09T05:13:04.300Z,4.60
2022-10-09T05:15:31.991Z,4.80
2022-10-09T05:17:59.473Z,5.50
2022-10-09T05:20:26.982Z,3.50
2022-10-09T05:22:54.660Z,3.20
2022-10-09T05:25:22.126Z,11.60
2022-10-09T05:27:49.636Z,7.60
2022-10-09T05:30:17.116Z,6.70
2022-10-09T05:32:44.597Z,11.70
2022-10-09T05:35:12.494Z,5.90
2022-10-09T05:37:39.997Z,5.10
2022-10-09T05:40:08.229Z,4.20
2022-10-09T05:42:35.786Z,3.20
2022-10-09T05:45:03.521Z,2.70
2022-10-09T05:47:31.041Z,3.70
2022-10-09T05:49:58.538Z,3.40
2022-10-09T05:52:26.011Z,2.70
2022-10-09T05:54:53.480Z,2.40
2022-10-09T05:57:20.998Z,2.30
2022-10-09T05:59:48.625Z,2.90
2022-10-09T06:02:16.260Z,3.10
2022-10-09T06:04:43.817Z,4.90
2022-10-09T06:07:11.452Z,2.20
2022-10-09T06:09:39.453Z,3.10
2022-10-09T06:12:07.041Z,2.00
2022-10-09T06:14:34.554Z,2.50
2022-10-09T06:17:02.111Z,2.90
2022-10-09T06:19:29.598Z,2.80
2022-10-09T06:21:57.069Z,2.80
2022-10-09T06:24:29.191Z,3.30
2022-10-09T06:26:58.362Z,5.00
2022-10-09T06:29:26.804Z,5.80
2022-10-09T06:31:54.329Z,3.90
2022-10-09T06:34:22.337Z,4.50
2022-10-09T06:36:50.049Z,11.10
2022-10-09T06:39:17.755Z,7.40
2022-10-09T06:41:45.313Z,5.30
2022-10-09T06:44:16.669Z,8.50
2022-10-09T06:46:49.412Z,7.00
2022-10-09T06:49:17.013Z,11.60
2022-10-09T06:51:44.609Z,8.10
2022-10-09T06:54:14.104Z,6.40
2022-10-09T06:56:41.700Z,4.00
2022-10-09T06:59:10.934Z,6.00
2022-10-09T07:01:38.546Z,3.10
2022-10-09T07:04:11.717Z,2.80
2022-10-09T07:06:44.009Z,4.40
2022-10-09T07:09:13.870Z,8.60
2022-10-09T07:11:44.673Z,3.30
2022-10-09T07:14:15.818Z,7.60
2022-10-09T07:16:46.632Z,9.90
2022-10-09T07:19:15.759Z,4.50
2022-10-09T07:21:45.751Z,5.90
2022-10-09T07:24:14.154Z,6.70
2022-10-09T07:26:44.564Z,4.00
2022-10-09T07:29:14.729Z,4.10
2022-10-09T07:31:42.404Z,8.00
2022-10-09T07:34:10.291Z,4.10
2022-10-09T07:36:37.891Z,5.50
2022-10-09T07:39:05.945Z,4.30
2022-10-09T07:41:34.306Z,3.30
2022-10-09T07:44:01.951Z,2.50
2022-10-09T07:46:33.224Z,2.40
2022-10-09T07:49:03.138Z,8.40
2022-10-09T07:51:31.728Z,21.30
2022-10-09T07:54:01.711Z,5.00
2022-10-09T07:56:32.330Z,2.50
2022-10-09T07:59:21.461Z,4.90
2022-10-09T08:01:48.954Z,2.40
2022-10-09T08:04:16.515Z,3.60
2022-10-09T08:06:44.026Z,2.90
2022-10-09T08:09:11.482Z,2.50
2022-10-09T08:11:40.840Z,2.90
2022-10-09T08:14:16.751Z,2.80
2022-10-09T08:16:48.157Z,4.30
2022-10-09T08:19:15.687Z,4.60
2022-10-09T08:21:43.278Z,4.30
2022-10-09T08:24:11.621Z,4.50
2022-10-09T08:26:39.189Z,3.80
2022-10-09T08:29:10.925Z,7.10
2022-10-09T08:31:38.596Z,7.10
2022-10-09T08:34:06.199Z,4.00
2022-10-09T08:36:33.704Z,5.00
2022-10-09T08:39:01.286Z,6.70
2022-10-09T08:41:46.714Z,5.60
2022-10-09T08:44:27.068Z,5.40
2022-10-09T08:46:57.816Z,3.10
2022-10-09T08:49:26.190Z,10.40
2022-10-09T08:51:56.002Z,6.40
2022-10-09T08:54:34.378Z,7.30
2022-10-09T08:57:06.597Z,10.80
2022-10-09T08:59:34.121Z,14.00
2022-10-09T09:02:23.785Z,9.20
2022-10-09T09:04:54.953Z,3.80
2022-10-09T09:07:38.636Z,11.10
2022-10-09T09:10:20.216Z,6.10
2022-10-09T09:12:53.983Z,10.60
2022-10-09T09:15:40.441Z,5.50
2022-10-09T09:18:34.096Z,5.90
2022-10-09T09:21:12.954Z,3.90
2022-10-09T09:23:44.343Z,4.20
2022-10-09T09:26:27.796Z,3.20
2022-10-09T09:29:01.857Z,3.90
2022-10-09T09:31:36.649Z,4.90
2022-10-09T09:34:04.272Z,3.00
2022-10-09T09:36:38.892Z,4.50
2022-10-09T09:42:01.604Z,8.50
2022-10-09T09:44:33.098Z,5.10
2022-10-09T09:47:00.789Z,3.30
2022-10-09T09:49:29.398Z,4.90
2022-10-09T09:52:00.886Z,2.10
2022-10-09T09:54:30.625Z,2.90
2022-10-09T09:57:12.979Z,15.20
2022-10-09T09:59:44.186Z,5.60
2022-10-09T10:02:13.550Z,3.50
2022-10-09T10:05:14.521Z,4.50
2022-10-09T10:07:42.215Z,3.00
2022-10-09T10:10:09.692Z,4.20
2022-10-09T10:12:42.200Z,3.30
2022-10-09T10:15:37.407Z,3.70
2022-10-09T10:18:12.867Z,3.30
2022-10-09T10:20:53.804Z,2.90
2022-10-09T10:23:25.313Z,2.70
2022-10-09T10:25:57.820Z,4.60
2022-10-09T10:28:32.276Z,3.20
2022-10-09T10:31:04.814Z,1.80
2022-10-09T10:33:36.309Z,2.10
2022-10-09T10:36:04.876Z,2.70
2022-10-09T10:38:46.421Z,7.50
2022-10-09T10:41:23.467Z,2.40
2022-10-09T10:43:58.072Z,3.60
2022-10-09T10:46:36.111Z,2.50
2022-10-09T10:49:04.443Z,4.70
2022-10-09T10:51:44.302Z,4.00
2022-10-09T10:54:48.047Z,2.70
2022-10-09T10:57:24.394Z,2.20
2022-10-09T11:00:10.995Z,4.30
2022-10-09T11:03:10.509Z,2.50
2022-10-09T11:06:10.074Z,4.00
2022-10-09T11:09:08.777Z,4.40
2022-10-09T11:11:46.593Z,2.60
2022-10-09T11:14:33.152Z,1.50
2022-10-09T11:17:16.509Z,3.10
2022-10-09T11:19:59.921Z,2.50
2022-10-09T11:22:43.468Z,2.10
2022-10-09T11:25:32.750Z,1.60
2022-10-09T11:28:22.373Z,2.00
2022-10-09T11:30:59.585Z,2.10
2022-10-09T11:33:29.812Z,3.10
2022-10-09T11:36:12.627Z,1.50
2022-10-09T11:38:46.014Z,2.80
2022-10-09T11:41:14.483Z,2.70
2022-10-09T11:43:58.017Z,2.70
2022-10-09T11:46:46.698Z,2.90
2022-10-09T11:49:56.653Z,3.50
2022-10-09T11:52:56.076Z,2.20
2022-10-09T11:55:27.383Z,2.80
2022-10-09T11:57:55.117Z,3.00
2022-10-09T12:00:32.386Z,1.60
2022-10-09T12:03:03.556Z,6.10
2022-10-09T12:05:49.114Z,2.60
2022-10-09T12:08:24.607Z,2.80
2022-10-09T12:11:07.212Z,2.70
2022-10-09T12:13:41.336Z,12.70
2022-10-09T12:16:29.191Z,7.50
2022-10-09T12:18:59.092Z,19.00
2022-10-09T12:21:32.693Z,8.40
2022-10-09T12:24:01.103Z,7.90
2022-10-09T12:26:30.023Z,19.00
2022-10-09T12:29:04.792Z,22.00
2022-10-09T12:31:36.979Z,10.70
2022-10-09T12:34:20.566Z,4.10
2022-10-09T12:36:48.101Z,3.70
2022-10-09T12:39:23.392Z,3.70
2022-10-09T12:41:54.499Z,3.50
2022-10-09T12:44:30.394Z,2.10
2022-10-09T12:47:03.817Z,2.40
2022-10-09T12:49:31.954Z,3.60
2022-10-09T12:52:00.759Z,1.50
2022-10-09T12:54:30.937Z,1.80
2022-10-09T12:57:00.549Z,3.90
2022-10-09T12:59:28.805Z,2.40
2022-10-09T13:02:00.190Z,3.20
2022-10-09T13:04:27.899Z,4.40
2022-10-09T13:06:56.958Z,4.90
2022-10-09T13:09:30.211Z,2.60
2022-10-09T13:12:04.588Z,3.30
2022-10-09T13:14:42.088Z,3.20
2022-10-09T13:20:03.727Z,3.40
2022-10-09T13:22:33.652Z,3.40
2022-10-09T13:25:02.837Z,2.40
2022-10-09T13:27:33.964Z,5.10
2022-10-09T13:30:01.667Z,1.70
2022-10-09T13:32:29.400Z,2.10
2022-10-09T13:34:58.204Z,6.00
2022-10-09T13:37:26.491Z,2.70
2022-10-09T13:39:55.704Z,2.00
2022-10-09T13:42:30.194Z,1.90
2022-10-09T13:44:58.337Z,2.70
2022-10-09T13:47:25.855Z,2.00
2022-10-09T13:49:53.389Z,1.70
2022-10-09T13:52:20.898Z,3.00
2022-10-09T13:54:48.460Z,2.20
2022-10-09T13:57:15.970Z,1.90
2022-10-09T13:59:43.560Z,2.20
2022-10-09T14:02:11.560Z,3.60
2022-10-09T14:04:39.360Z,3.70
2022-10-09T14:07:06.953Z,3.80
2022-10-09T14:09:34.516Z,4.10
2022-10-09T14:12:02.069Z,5.20
2022-10-09T14:14:29.607Z,2.30
2022-10-09T14:16:57.196Z,4.20
2022-10-09T14:19:27.621Z,3.80
2022-10-09T14:21:57.088Z,9.60
2022-10-09T14:24:25.567Z,8.60
2022-10-09T14:26:53.105Z,4.60
2022-10-09T14:29:20.689Z,4.30
2022-10-09T14:31:54.107Z,5.70
2022-10-09T14:34:22.044Z,5.30
2022-10-09T14:36:49.841Z,4.60
2022-10-09T14:39:17.363Z,3.00
2022-10-09T14:41:45.738Z,5.40
2022-10-09T14:44:13.418Z,8.10
2022-10-09T14:46:40.958Z,9.00
2022-10-09T14:49:08.560Z,5.80
2022-10-09T14:51:39.495Z,20.30
2022-10-09T14:54:09.541Z,8.30
2022-10-09T14:56:37.097Z,6.60
2022-10-09T14:59:08.486Z,10.90
2022-10-09T15:01:36.454Z,7.30
2022-10-09T15:04:05.433Z,11.20
2022-10-09T15:06:33.875Z,13.40
2022-10-09T15:09:04.823Z,8.10
2022-10-09T15:11:34.722Z,13.00
2022-10-09T15:14:03.216Z,22.50
2022-10-09T15:16:30.852Z,22.80
2022-10-09T15:18:58.812Z,88.50
2022-10-09T15:21:28.929Z,21.70
2022-10-09T15:23:59.092Z,42.80
2022-10-09T15:26:28.922Z,17.00
2022-10-09T15:28:56.919Z,35.30
2022-10-09T15:31:31.448Z,8.40
2022-10-09T15:34:01.550Z,21.60
2022-10-09T15:36:33.364Z,11.90
2022-10-09T15:39:05.459Z,16.90
2022-10-09T15:41:35.895Z,12.30
2022-10-09T15:44:06.742Z,12.80
2022-10-09T15:46:34.339Z,21.80
2022-10-09T15:49:01.872Z,5.30
2022-10-09T15:51:31.586Z,11.20
2022-10-09T15:54:01.154Z,18.90
2022-10-09T15:56:29.815Z,13.40
2022-10-09T15:58:58.932Z,13.10
2022-10-09T16:01:26.678Z,12.10
2022-10-09T16:03:54.411Z,9.30
2022-10-09T16:06:23.720Z,19.80
2022-10-09T16:08:56.057Z,10.40
2022-10-09T16:11:26.291Z,10.60
2022-10-09T16:13:56.220Z,26.10
2022-10-09T16:16:25.782Z,20.20
2022-10-09T16:18:54.909Z,8.30
2022-10-09T16:21:28.837Z,14.10
2022-10-09T16:24:05.563Z,13.00
2022-10-09T16:26:33.230Z,5.50
2022-10-09T16:29:00.852Z,13.50
2022-10-09T16:31:31.889Z,19.10
2022-10-09T16:33:59.389Z,45.40
2022-10-09T16:36:27.475Z,50.40
2022-10-09T16:38:57.030Z,72.70
2022-10-09T16:41:25.985Z,104.10
2022-10-09T16:43:55.729Z,90.40
2022-10-09T16:49:02.565Z,32.90
2022-10-09T16:51:35.391Z,31.20
2022-10-09T16:54:05.653Z,41.00
2022-10-09T16:56:36.951Z,45.30
2022-10-09T16:59:07.397Z,24.70
2022-10-09T17:01:40.265Z,42.80
2022-10-09T17:04:07.783Z,35.20
2022-10-09T17:06:35.538Z,43.40
2022-10-09T17:09:03.138Z,46.80
2022-10-09T17:11:30.831Z,38.00
2022-10-09T17:13:58.982Z,43.50
2022-10-09T17:16:31.124Z,49.70
2022-10-09T17:18:58.755Z,39.70
2022-10-09T17:21:30.959Z,43.30
2022-10-09T17:24:06.306Z,45.90
2022-10-09T17:26:34.777Z,50.20
2022-10-09T17:29:03.315Z,47.10
2022-10-09T17:31:31.098Z,38.90
2022-10-09T17:34:01.768Z,37.90
2022-10-09T17:36:35.614Z,41.70
2022-10-09T17:39:06.207Z,42.00
2022-10-09T17:41:34.767Z,42.70
2022-10-09T17:44:02.449Z,30.30
2022-10-09T17:46:30.686Z,23.70
2022-10-09T17:48:59.529Z,39.10
2022-10-09T17:51:30.311Z,30.60
2022-10-09T17:54:01.399Z,26.20
2022-10-09T17:56:30.353Z,19.80
2022-10-09T17:59:02.405Z,18.20
2022-10-09T18:01:30.720Z,24.50
2022-10-09T18:03:58.896Z,17.30
2022-10-09T18:06:27.206Z,16.20
2022-10-09T18:08:55.510Z,16.70
2022-10-09T18:11:25.645Z,17.30
2022-10-09T18:13:54.458Z,16.80
2022-10-09T18:16:35.210Z,18.70
2022-10-09T18:19:12.150Z,19.10
2022-10-09T18:21:43.707Z,22.90
2022-10-09T18:24:15.273Z,24.20
2022-10-09T18:26:42.902Z,17.60
2022-10-09T18:29:10.620Z,20.20
2022-10-09T18:31:38.501Z,17.90
2022-10-09T18:34:06.307Z,14.20
2022-10-09T18:36:34.966Z,16.30
2022-10-09T18:39:08.243Z,14.20
2022-10-09T18:41:36.348Z,14.10
2022-10-09T18:44:05.426Z,15.80
2022-10-09T18:46:40.614Z,19.20
2022-10-09T18:49:11.869Z,24.30
2022-10-09T18:51:42.299Z,27.70
2022-10-09T18:54:15.742Z,36.50
2022-10-09T18:56:46.227Z,27.40
2022-10-09T18:59:18.027Z,52.70
2022-10-09T19:01:45.546Z,24.70
2022-10-09T19:04:13.477Z,11.10
2022-10-09T19:06:41.002Z,11.70
2022-10-09T19:09:08.518Z,11.60
2022-10-09T19:11:36.119Z,12.30
2022-10-09T19:14:03.649Z,15.50
2022-10-09T19:16:33.216Z,27.20
2022-10-09T19:19:01.187Z,17.70
2022-10-09T19:21:28.727Z,17.90
2022-10-09T19:23:56.308Z,39.30
2022-10-09T19:26:23.824Z,23.00
2022-10-09T19:28:51.932Z,25.80
2022-10-09T19:31:19.455Z,16.50
2022-10-09T19:33:46.963Z,15.20
2022-10-09T19:36:14.784Z,11.00
2022-10-09T19:38:42.552Z,20.10
2022-10-09T19:41:13.692Z,25.80
2022-10-09T19:43:42.028Z,30.00
2022-10-09T19:46:14.254Z,41.80
2022-10-09T19:48:41.751Z,40.20
2022-10-09T19:51:14.239Z,31.20
2022-10-09T19:53:43.486Z,42.30
2022-10-09T19:56:18.360Z,51.10
2022-10-09T19:58:48.522Z,49.10
2022-10-09T20:01:19.507Z,44.90
2022-10-09T20:03:48.027Z,49.60
2022-10-09T20:06:15.553Z,45.70
2022-10-09T20:08:43.792Z,23.10
2022-10-09T20:11:11.959Z,18.40
2022-10-09T20:13:42.317Z,32.50
2022-10-09T20:16:13.072Z,41.90
2022-10-09T20:18:42.434Z,57.50
2022-10-09T20:21:13.041Z,73.90
2022-10-09T20:23:40.615Z,59.30
2022-10-09T20:26:16.623Z,44.80
2022-10-09T20:28:45.439Z,34.40
2022-10-09T20:31:19.466Z,24.80
2022-10-09T20:33:48.486Z,31.00
2022-10-09T20:36:28.743Z,34.00
2022-10-09T20:39:01.067Z,25.30
2022-10-09T20:41:30.472Z,23.30
2022-10-09T20:44:00.458Z,17.60
2022-10-09T20:46:30.105Z,18.20
2022-10-09T20:48:57.836Z,25.10
2022-10-09T20:51:26.161Z,25.80
2022-10-09T20:53:56.128Z,22.80
2022-10-09T20:56:26.261Z,31.60
2022-10-09T20:58:54.811Z,42.10
2022-10-09T21:01:22.888Z,41.70
2022-10-09T21:03:51.572Z,31.90
2022-10-09T21:06:21.322Z,31.00
2022-10-09T21:08:50.343Z,31.70
2022-10-09T21:11:19.266Z,30.40
2022-10-09T21:13:48.764Z,27.60
2022-10-09T21:16:23.052Z,32.40
2022-10-09T21:18:59.464Z,23.60
2022-10-09T21:21:29.606Z,19.80
2022-10-09T21:23:59.532Z,15.80
2022-10-09T21:26:28.394Z,10.60
2022-10-09T21:28:59.577Z,11.80
2022-10-09T21:31:29.672Z,15.00
2022-10-09T21:33:59.842Z,13.10
2022-10-09T21:36:55.848Z,12.30
2022-10-09T21:39:27.071Z,14.40
2022-10-09T21:41:55.985Z,13.10
2022-10-09T21:44:23.486Z,12.30
2022-10-09T21:46:51.000Z,15.80
2022-10-09T21:49:24.687Z,14.30
2022-10-09T21:51:52.801Z,13.50
2022-10-09T21:54:20.889Z,10.90
2022-10-09T21:56:48.580Z,13.10
2022-10-09T21:59:16.195Z,14.70
2022-10-09T22:01:43.764Z,14.50
2022-10-09T22:04:11.372Z,13.00
2022-10-09T22:06:41.044Z,9.60
2022-10-09T22:09:09.817Z,9.30
2022-10-09T22:11:37.539Z,8.50
2022-10-09T22:14:05.693Z,8.70
2022-10-09T22:16:33.177Z,8.00
2022-10-09T22:19:00.683Z,7.50
2022-10-09T22:21:28.335Z,8.00
2022-10-09T22:23:55.989Z,8.60
2022-10-09T22:26:23.454Z,9.10
2022-10-09T22:28:51.111Z,8.50
2022-10-09T22:31:19.866Z,8.70
2022-10-09T22:33:56.658Z,8.30
2022-10-09T22:36:27.540Z,9.60
2022-10-09T22:39:00.358Z,8.60
2022-10-09T22:41:29.402Z,8.70
2022-10-09T22:43:58.956Z,8.00
2022-10-09T22:46:32.998Z,7.00
2022-10-09T22:49:01.329Z,8.30
2022-10-09T22:51:29.839Z,11.00
2022-10-09T22:53:59.095Z,7.90
2022-10-09T22:56:32.849Z,7.30
2022-10-09T22:59:00.580Z,7.70
2022-10-09T23:01:32.875Z,7.10
2022-10-09T23:04:05.634Z,7.60
2022-10-09T23:06:33.210Z,7.60
2022-10-09T23:09:01.268Z,6.60
2022-10-09T23:11:28.744Z,7.20
2022-10-09T23:13:59.370Z,6.80
2022-10-09T23:16:28.784Z,6.60
2022-10-09T23:18:58.194Z,7.60
2022-10-09T23:21:27.247Z,6.30
2022-10-09T23:23:56.355Z,7.10
2022-10-09T23:26:29.032Z,7.80
2022-10-09T23:29:08.779Z,7.50
2022-10-09T23:31:36.768Z,8.10
2022-10-09T23:34:06.250Z,11.70
2022-10-09T23:36:34.632Z,7.00
2022-10-09T23:39:04.244Z,7.00
2022-10-09T23:41:32.151Z,11.80
2022-10-09T23:43:59.700Z,12.90
2022-10-09T23:46:29.970Z,11.50
2022-10-09T23:48:57.513Z,10.10
2022-10-09T23:51:27.071Z,8.90
2022-10-09T23:53:55.815Z,9.20
2022-10-09T23:56:27.402Z,8.40
2022-10-09T23:58:56.512Z,6.80
